Time;durP1;ratioP1;P1;durP2;ratioP2;P2;SDS_P1;SDS_P2;PMS_P1;PMS_P2;Temp;Humidity;BMP_temperature;BMP_pressure;BME280_temperature;BME280_humidity;BME280_pressure;Samples;Min_cycle;Max_cycle;Signal;HPM_P1;HPM_P2
2021/09/10 00:00:11;;;;;;;4.30;2.57;;;;;;;21.13;72.36;100236.23;;;;-57
2021/09/10 00:03:11;;;;;;;2.77;2.45;;;;;;;21.12;72.43;100233.63;;;;-61
2021/09/10 00:06:11;;;;;;;2.77;2.30;;;;;;;21.12;72.39;100237.86;;;;-60
2021/09/10 00:09:11;;;;;;;2.85;2.49;;;;;;;21.12;72.42;100239.58;;;;-56
2021/09/10 00:12:11;;;;;;;2.66;2.39;;;;;;;21.12;72.44;100238.44;;;;-59
2021/09/10 00:15:11;;;;;;;2.61;2.37;;;;;;;21.12;72.42;100237.45;;;;-59
2021/09/10 00:18:11;;;;;;;2.86;2.31;;;;;;;21.11;72.37;100239.34;;;;-60
2021/09/10 00:21:11;;;;;;;2.89;2.49;;;;;;;21.11;72.41;100235.36;;;;-59
2021/09/10 00:24:11;;;;;;;2.87;2.59;;;;;;;21.11;72.38;100236.34;;;;-59
2021/09/10 00:27:11;;;;;;;2.59;2.39;;;;;;;21.10;72.41;100236.89;;;;-59
2021/09/10 00:30:11;;;;;;;2.65;2.29;;;;;;;21.09;72.45;100236.08;;;;-59
2021/09/10 00:33:11;;;;;;;2.60;2.40;;;;;;;21.09;72.37;100235.27;;;;-59
2021/09/10 00:36:11;;;;;;;2.89;2.57;;;;;;;21.11;72.39;100240.08;;;;-59
2021/09/10 00:39:11;;;;;;;3.34;2.37;;;;;;;21.09;72.41;100239.92;;;;-59
2021/09/10 00:42:11;;;;;;;2.99;2.49;;;;;;;21.09;72.45;100243.18;;;;-57
2021/09/10 00:45:11;;;;;;;2.83;2.45;;;;;;;21.08;72.36;100240.42;;;;-55
2021/09/10 00:48:11;;;;;;;2.39;2.19;;;;;;;21.08;72.35;100240.96;;;;-56
2021/09/10 00:51:11;;;;;;;3.52;2.31;;;;;;;21.07;72.39;100242.52;;;;-56
2021/09/10 00:54:11;;;;;;;2.64;2.41;;;;;;;21.07;72.42;100241.06;;;;-56
2021/09/10 00:57:11;;;;;;;2.51;2.30;;;;;;;21.07;72.41;100246.52;;;;-59
2021/09/10 01:00:11;;;;;;;3.46;2.42;;;;;;;21.07;72.46;100244.48;;;;-60
2021/09/10 01:03:11;;;;;;;3.15;2.23;;;;;;;21.06;72.44;100244.01;;;;-59
2021/09/10 01:06:11;;;;;;;2.59;2.38;;;;;;;21.06;72.43;100242.59;;;;-59
2021/09/10 01:09:11;;;;;;;2.65;2.45;;;;;;;21.06;72.40;100246.84;;;;-60
2021/09/10 01:12:11;;;;;;;3.31;2.47;;;;;;;21.06;72.41;100249.04;;;;-60
2021/09/10 01:15:11;;;;;;;3.11;2.37;;;;;;;21.06;72.37;100250.27;;;;-59
2021/09/10 01:18:11;;;;;;;2.59;2.39;;;;;;;21.05;72.45;100250.03;;;;-60
2021/09/10 01:21:11;;;;;;;2.85;2.55;;;;;;;21.05;72.42;100253.87;;;;-60
2021/09/10 01:24:11;;;;;;;2.90;2.45;;;;;;;21.04;72.47;100249.12;;;;-61
2021/09/10 01:27:11;;;;;;;2.87;2.47;;;;;;;21.04;72.40;100247.92;;;;-60
2021/09/10 01:30:11;;;;;;;2.89;2.44;;;;;;;21.05;72.47;100248.49;;;;-59
2021/09/10 01:33:11;;;;;;;2.77;2.57;;;;;;;21.04;72.47;100250.67;;;;-58
2021/09/10 01:36:14;;;;;;;2.41;2.21;;;;;;;21.04;72.41;100248.48;;;;-58
2021/09/10 01:39:11;;;;;;;3.34;2.28;;;;;;;21.03;72.44;100251.09;;;;-59
2021/09/10 01:42:11;;;;;;;2.41;2.21;;;;;;;21.04;72.43;100254.67;;;;-59
2021/09/10 01:45:11;;;;;;;2.41;2.21;;;;;;;21.03;72.46;100252.31;;;;-59
2021/09/10 01:48:11;;;;;;;3.04;2.55;;;;;;;21.03;72.47;100251.27;;;;-59
2021/09/10 01:51:11;;;;;;;2.86;2.24;;;;;;;21.02;72.45;100250.87;;;;-60
2021/09/10 01:54:11;;;;;;;2.69;2.39;;;;;;;21.02;72.42;100252.17;;;;-61
2021/09/10 01:57:11;;;;;;;2.71;2.40;;;;;;;21.02;72.45;100249.47;;;;-60
2021/09/10 02:00:11;;;;;;;2.63;2.23;;;;;;;21.02;72.54;100254.11;;;;-60
2021/09/10 02:03:11;;;;;;;2.61;2.41;;;;;;;21.01;72.47;100256.72;;;;-57
2021/09/10 02:06:11;;;;;;;2.39;2.19;;;;;;;21.01;72.49;100256.31;;;;-58
2021/09/10 02:09:11;;;;;;;2.73;2.45;;;;;;;21.01;72.53;100253.31;;;;-57
2021/09/10 02:12:11;;;;;;;2.70;2.50;;;;;;;21.00;72.50;100248.11;;;;-57
2021/09/10 02:15:11;;;;;;;2.57;2.37;;;;;;;21.01;72.50;100250.04;;;;-57
2021/09/10 02:18:11;;;;;;;2.63;2.43;;;;;;;21.01;72.50;100249.73;;;;-58
2021/09/10 02:21:11;;;;;;;2.70;2.37;;;;;;;21.00;72.50;100251.34;;;;-57
2021/09/10 02:24:11;;;;;;;2.77;2.37;;;;;;;21.00;72.47;100253.78;;;;-57
2021/09/10 02:27:11;;;;;;;2.70;2.50;;;;;;;21.00;72.51;100254.88;;;;-57
2021/09/10 02:30:11;;;;;;;2.53;2.33;;;;;;;21.00;72.51;100255.92;;;;-57
2021/09/10 02:33:13;;;;;;;2.50;2.30;;;;;;;20.99;72.57;100253.39;;;;-58
2021/09/10 02:36:11;;;;;;;2.53;2.33;;;;;;;20.99;72.56;100252.17;;;;-57
2021/09/10 02:39:11;;;;;;;2.56;2.36;;;;;;;20.99;72.52;100253.95;;;;-58
2021/09/10 02:42:11;;;;;;;2.66;2.43;;;;;;;20.98;72.60;100252.91;;;;-61
2021/09/10 02:45:11;;;;;;;2.67;2.47;;;;;;;20.98;72.55;100250.23;;;;-60
2021/09/10 02:48:11;;;;;;;2.57;2.37;;;;;;;20.98;72.58;100253.73;;;;-60
2021/09/10 02:51:11;;;;;;;2.35;2.15;;;;;;;20.98;72.53;100255.93;;;;-60
2021/09/10 02:54:11;;;;;;;2.55;2.33;;;;;;;20.98;72.58;100258.95;;;;-56
2021/09/10 02:57:11;;;;;;;2.38;2.18;;;;;;;20.98;72.60;100253.80;;;;-55
2021/09/10 03:00:11;;;;;;;2.55;2.31;;;;;;;20.97;72.55;100251.44;;;;-55
2021/09/10 03:03:11;;;;;;;5.61;2.46;;;;;;;20.97;72.55;100252.58;;;;-57
2021/09/10 03:06:11;;;;;;;2.65;2.45;;;;;;;20.97;72.61;100249.73;;;;-57
2021/09/10 03:09:11;;;;;;;2.70;2.40;;;;;;;20.97;72.59;100248.17;;;;-57
2021/09/10 03:12:11;;;;;;;2.61;2.41;;;;;;;20.97;72.60;100250.23;;;;-58
2021/09/10 03:15:11;;;;;;;2.70;2.50;;;;;;;20.96;72.55;100246.89;;;;-58
2021/09/10 03:18:11;;;;;;;2.62;2.42;;;;;;;20.96;72.64;100242.34;;;;-57
2021/09/10 03:21:11;;;;;;;2.79;2.49;;;;;;;20.96;72.58;100239.81;;;;-58
2021/09/10 03:24:11;;;;;;;3.40;2.39;;;;;;;20.96;72.60;100238.48;;;;-60
2021/09/10 03:27:11;;;;;;;3.24;2.63;;;;;;;20.96;72.64;100236.69;;;;-60
2021/09/10 03:30:11;;;;;;;2.73;2.52;;;;;;;20.95;72.65;100228.80;;;;-58
2021/09/10 03:33:11;;;;;;;2.63;2.43;;;;;;;20.95;72.65;100228.48;;;;-58
2021/09/10 03:36:11;;;;;;;2.61;2.38;;;;;;;20.94;72.58;100224.83;;;;-57
2021/09/10 03:39:11;;;;;;;2.78;2.53;;;;;;;20.95;72.63;100223.19;;;;-58
2021/09/10 03:42:11;;;;;;;2.61;2.37;;;;;;;20.94;72.64;100222.78;;;;-58
2021/09/10 03:45:11;;;;;;;2.65;2.45;;;;;;;20.94;72.61;100224.09;;;;-58
2021/09/10 03:48:11;;;;;;;2.49;2.29;;;;;;;20.93;72.62;100219.67;;;;-58
2021/09/10 03:51:11;;;;;;;2.55;2.35;;;;;;;20.94;72.69;100217.91;;;;-60
2021/09/10 03:54:11;;;;;;;2.49;2.29;;;;;;;20.93;72.69;100217.56;;;;-60
2021/09/10 03:57:11;;;;;;;2.61;2.41;;;;;;;20.93;72.67;100214.79;;;;-60
2021/09/10 04:00:11;;;;;;;2.69;2.49;;;;;;;20.93;72.65;100215.53;;;;-61
2021/09/10 04:03:11;;;;;;;2.58;2.36;;;;;;;20.93;72.63;100211.79;;;;-61
2021/09/10 04:06:11;;;;;;;2.74;2.54;;;;;;;20.92;72.66;100211.96;;;;-60
2021/09/10 04:09:11;;;;;;;2.71;2.49;;;;;;;20.92;72.72;100214.33;;;;-60
2021/09/10 04:12:11;;;;;;;2.67;2.47;;;;;;;20.93;72.67;100213.33;;;;-57
2021/09/10 04:15:11;;;;;;;2.61;2.41;;;;;;;20.92;72.66;100214.81;;;;-57
2021/09/10 04:18:11;;;;;;;2.69;2.43;;;;;;;20.92;72.62;100211.80;;;;-59
2021/09/10 04:21:11;;;;;;;2.65;2.45;;;;;;;20.92;72.66;100217.27;;;;-57
2021/09/10 04:24:17;;;;;;;2.69;2.49;;;;;;;20.92;72.64;100214.70;;;;-58
2021/09/10 04:27:11;;;;;;;2.71;2.51;;;;;;;20.92;72.64;100218.30;;;;-58
2021/09/10 04:30:11;;;;;;;2.55;2.35;;;;;;;20.91;72.64;100210.89;;;;-58
2021/09/10 04:33:11;;;;;;;2.70;2.50;;;;;;;20.91;72.66;100213.25;;;;-57
2021/09/10 04:36:11;;;;;;;2.79;2.59;;;;;;;20.91;72.68;100212.28;;;;-55
2021/09/10 04:39:11;;;;;;;3.05;2.60;;;;;;;20.91;72.69;100215.22;;;;-61
2021/09/10 04:42:11;;;;;;;2.73;2.47;;;;;;;20.91;72.59;100220.59;;;;-60
2021/09/10 04:45:11;;;;;;;2.75;2.55;;;;;;;20.90;72.67;100218.65;;;;-56
2021/09/10 04:48:11;;;;;;;2.67;2.45;;;;;;;20.91;72.68;100217.91;;;;-59
2021/09/10 04:51:11;;;;;;;2.77;2.38;;;;;;;20.90;72.65;100219.86;;;;-59
2021/09/10 04:54:15;;;;;;;2.87;2.67;;;;;;;20.90;72.66;100223.94;;;;-57
2021/09/10 04:57:11;;;;;;;2.53;2.33;;;;;;;20.90;72.67;100222.32;;;;-57
2021/09/10 05:00:11;;;;;;;2.53;2.33;;;;;;;20.90;72.66;100224.35;;;;-60
2021/09/10 05:03:11;;;;;;;2.83;2.40;;;;;;;20.89;72.69;100227.09;;;;-57
2021/09/10 05:06:11;;;;;;;2.51;2.31;;;;;;;20.89;72.61;100229.55;;;;-55
2021/09/10 05:09:11;;;;;;;2.58;2.38;;;;;;;20.89;72.63;100231.66;;;;-55
2021/09/10 05:12:11;;;;;;;2.66;2.46;;;;;;;20.88;72.63;100234.61;;;;-57
2021/09/10 05:15:11;;;;;;;2.50;2.30;;;;;;;20.89;72.68;100237.13;;;;-57
2021/09/10 05:18:11;;;;;;;2.52;2.32;;;;;;;20.88;72.64;100245.20;;;;-57
2021/09/10 05:21:11;;;;;;;2.53;2.33;;;;;;;20.88;72.68;100247.80;;;;-55
2021/09/10 05:24:11;;;;;;;2.51;2.31;;;;;;;20.88;72.65;100253.61;;;;-55
2021/09/10 05:27:11;;;;;;;2.50;2.30;;;;;;;20.88;72.68;100253.67;;;;-55
2021/09/10 05:30:11;;;;;;;2.47;2.27;;;;;;;20.88;72.64;100253.76;;;;-55
2021/09/10 05:33:11;;;;;;;2.83;2.63;;;;;;;20.87;72.63;100255.13;;;;-55
2021/09/10 05:36:11;;;;;;;2.30;2.12;;;;;;;20.88;72.68;100259.62;;;;-55
2021/09/10 05:39:11;;;;;;;2.41;2.21;;;;;;;20.87;72.64;100263.44;;;;-56
2021/09/10 05:42:11;;;;;;;2.52;2.32;;;;;;;20.87;72.65;100270.36;;;;-55
2021/09/10 05:45:11;;;;;;;2.53;2.33;;;;;;;20.87;72.70;100271.09;;;;-55
2021/09/10 05:48:11;;;;;;;2.46;2.28;;;;;;;20.88;72.60;100272.50;;;;-55
2021/09/10 05:51:11;;;;;;;2.55;2.35;;;;;;;20.87;72.65;100266.61;;;;-56
2021/09/10 05:54:11;;;;;;;2.65;2.45;;;;;;;20.87;72.66;100265.16;;;;-55
2021/09/10 05:57:11;;;;;;;2.80;2.60;;;;;;;20.86;72.67;100263.86;;;;-55
2021/09/10 06:00:12;;;;;;;2.59;2.39;;;;;;;20.87;72.66;100267.84;;;;-55
2021/09/10 06:03:11;;;;;;;2.56;2.36;;;;;;;20.86;72.63;100267.69;;;;-55
2021/09/10 06:06:11;;;;;;;2.55;2.35;;;;;;;20.87;72.63;100269.72;;;;-60
2021/09/10 06:09:11;;;;;;;2.66;2.46;;;;;;;20.87;72.63;100271.02;;;;-60
2021/09/10 06:12:11;;;;;;;3.07;2.29;;;;;;;20.86;72.58;100268.42;;;;-61
2021/09/10 06:15:11;;;;;;;2.53;2.33;;;;;;;20.87;72.63;100263.04;;;;-60
2021/09/10 06:18:11;;;;;;;2.64;2.33;;;;;;;20.86;72.58;100269.89;;;;-60
2021/09/10 06:21:11;;;;;;;2.63;2.39;;;;;;;20.86;72.57;100274.63;;;;-61
2021/09/10 06:24:11;;;;;;;2.51;2.31;;;;;;;20.86;72.58;100276.00;;;;-60
2021/09/10 06:27:11;;;;;;;2.45;2.25;;;;;;;20.86;72.62;100276.48;;;;-61
2021/09/10 06:30:11;;;;;;;2.60;2.40;;;;;;;20.86;72.59;100283.00;;;;-58
2021/09/10 06:33:11;;;;;;;2.63;2.43;;;;;;;20.86;72.64;100286.75;;;;-57
2021/09/10 06:36:11;;;;;;;2.58;2.38;;;;;;;20.86;72.55;100287.49;;;;-57
2021/09/10 06:39:11;;;;;;;2.60;2.39;;;;;;;20.86;72.66;100290.02;;;;-57
2021/09/10 06:42:11;;;;;;;2.47;2.27;;;;;;;20.86;72.64;100288.30;;;;-59
2021/09/10 06:45:11;;;;;;;2.70;2.50;;;;;;;20.85;72.59;100285.19;;;;-60
2021/09/10 06:48:11;;;;;;;3.29;2.40;;;;;;;20.85;72.64;100284.53;;;;-60
2021/09/10 06:51:11;;;;;;;2.59;2.39;;;;;;;20.85;72.60;100287.06;;;;-60
2021/09/10 06:54:11;;;;;;;2.50;2.30;;;;;;;20.86;72.64;100286.84;;;;-60
2021/09/10 06:57:11;;;;;;;2.57;2.30;;;;;;;20.86;72.64;100291.41;;;;-60
2021/09/10 07:00:11;;;;;;;2.40;2.20;;;;;;;20.85;72.58;100291.95;;;;-60
2021/09/10 07:03:11;;;;;;;2.43;2.23;;;;;;;20.85;72.62;100295.45;;;;-60
2021/09/10 07:06:11;;;;;;;2.59;2.39;;;;;;;20.86;72.59;100293.52;;;;-60
2021/09/10 07:09:11;;;;;;;2.55;2.35;;;;;;;20.86;72.57;100298.48;;;;-60
2021/09/10 07:12:11;;;;;;;2.55;2.35;;;;;;;20.85;72.63;100301.56;;;;-57
2021/09/10 07:15:11;;;;;;;2.61;2.41;;;;;;;20.84;72.54;100302.39;;;;-58
2021/09/10 07:18:11;;;;;;;2.33;2.13;;;;;;;20.85;72.64;100306.13;;;;-59
2021/09/10 07:21:11;;;;;;;2.51;2.31;;;;;;;20.85;72.56;100305.72;;;;-58
2021/09/10 07:24:11;;;;;;;2.46;2.26;;;;;;;20.85;72.56;100304.90;;;;-59
2021/09/10 07:27:11;;;;;;;2.51;2.31;;;;;;;20.85;72.53;100304.58;;;;-59
2021/09/10 07:30:11;;;;;;;3.03;2.25;;;;;;;20.85;72.61;100308.98;;;;-58
2021/09/10 07:33:11;;;;;;;2.60;2.40;;;;;;;20.85;72.59;100306.61;;;;-59
2021/09/10 07:36:11;;;;;;;2.45;2.25;;;;;;;20.84;72.56;100307.60;;;;-59
2021/09/10 07:39:11;;;;;;;2.45;2.22;;;;;;;20.84;72.58;100313.95;;;;-58
2021/09/10 07:42:11;;;;;;;2.43;2.20;;;;;;;20.84;72.57;100318.28;;;;-59
2021/09/10 07:45:11;;;;;;;2.49;2.29;;;;;;;20.84;72.58;100319.02;;;;-59
2021/09/10 07:48:11;;;;;;;2.41;2.21;;;;;;;20.84;72.53;100313.55;;;;-59
2021/09/10 07:51:11;;;;;;;2.41;2.21;;;;;;;20.85;72.53;100317.12;;;;-59
2021/09/10 07:54:11;;;;;;;2.30;2.10;;;;;;;20.84;72.50;100320.06;;;;-59
2021/09/10 07:57:11;;;;;;;2.61;2.32;;;;;;;20.84;72.49;100323.50;;;;-59
2021/09/10 08:00:11;;;;;;;2.50;2.30;;;;;;;20.84;72.51;100324.23;;;;-58
2021/09/10 08:03:11;;;;;;;2.49;2.29;;;;;;;20.84;72.53;100328.05;;;;-59
2021/09/10 08:06:11;;;;;;;2.47;2.27;;;;;;;20.84;72.58;100328.05;;;;-59
2021/09/10 08:09:11;;;;;;;2.45;2.25;;;;;;;20.83;72.49;100330.55;;;;-58
2021/09/10 08:12:11;;;;;;;2.37;2.17;;;;;;;20.84;72.56;100335.30;;;;-60
2021/09/10 08:15:11;;;;;;;2.60;2.40;;;;;;;20.84;72.51;100341.00;;;;-60
2021/09/10 08:18:11;;;;;;;2.35;2.15;;;;;;;20.84;72.50;100339.95;;;;-60
2021/09/10 08:21:11;;;;;;;2.47;2.27;;;;;;;20.85;72.46;100342.54;;;;-61
2021/09/10 08:24:11;;;;;;;2.50;2.30;;;;;;;20.84;72.51;100346.05;;;;-61
2021/09/10 08:27:11;;;;;;;2.65;2.27;;;;;;;20.84;72.56;100347.19;;;;-61
2021/09/10 08:30:11;;;;;;;2.71;2.49;;;;;;;20.84;72.53;100346.13;;;;-60
2021/09/10 08:33:11;;;;;;;2.41;2.21;;;;;;;20.84;72.44;100347.59;;;;-60
2021/09/10 08:36:11;;;;;;;2.57;2.37;;;;;;;20.84;72.52;100345.88;;;;-61
2021/09/10 08:39:11;;;;;;;2.32;2.19;;;;;;;20.84;72.50;100347.44;;;;-60
2021/09/10 08:42:11;;;;;;;2.48;2.28;;;;;;;20.84;72.46;100354.60;;;;-60
2021/09/10 08:45:11;;;;;;;2.40;2.20;;;;;;;20.84;72.49;100353.30;;;;-60
2021/09/10 08:48:11;;;;;;;2.29;2.12;;;;;;;20.84;72.42;100352.16;;;;-55
2021/09/10 08:51:11;;;;;;;2.58;2.38;;;;;;;20.85;72.50;100352.06;;;;-61
2021/09/10 08:54:12;;;;;;;2.61;2.40;;;;;;;20.85;72.45;100360.62;;;;-60
2021/09/10 08:57:11;;;;;;;2.58;2.38;;;;;;;20.85;72.44;100362.16;;;;-60
2021/09/10 09:00:11;;;;;;;2.50;2.30;;;;;;;20.84;72.45;100359.58;;;;-61
2021/09/10 09:03:11;;;;;;;6.80;2.64;;;;;;;20.87;72.78;100361.59;;;;-60
2021/09/10 09:06:11;;;;;;;4.59;2.65;;;;;;;20.89;72.87;100365.50;;;;-58
2021/09/10 09:09:11;;;;;;;5.33;2.91;;;;;;;20.90;73.00;100362.98;;;;-59
2021/09/10 09:12:11;;;;;;;6.14;2.82;;;;;;;20.92;73.03;100367.86;;;;-60
2021/09/10 09:15:11;;;;;;;5.62;3.02;;;;;;;20.93;73.04;100369.58;;;;-61
2021/09/10 09:18:11;;;;;;;3.35;2.91;;;;;;;20.95;73.02;100374.70;;;;-59
2021/09/10 09:21:11;;;;;;;3.77;2.91;;;;;;;20.97;73.14;100371.03;;;;-61
2021/09/10 09:24:11;;;;;;;3.83;3.07;;;;;;;20.98;73.18;100366.55;;;;-59
2021/09/10 09:27:12;;;;;;;5.00;2.96;;;;;;;21.00;73.19;100369.25;;;;-61
2021/09/10 09:30:11;;;;;;;3.53;3.13;;;;;;;21.02;73.30;100367.60;;;;-55
2021/09/10 09:33:13;;;;;;;5.11;2.98;;;;;;;21.03;73.30;100367.84;;;;-53
2021/09/10 09:36:11;;;;;;;6.07;2.67;;;;;;;21.05;73.28;100372.98;;;;-56
2021/09/10 09:39:11;;;;;;;6.43;3.08;;;;;;;21.07;73.15;100372.98;;;;-61
2021/09/10 09:42:11;;;;;;;7.33;3.28;;;;;;;21.07;73.08;100376.41;;;;-52
2021/09/10 09:45:12;;;;;;;4.18;2.80;;;;;;;21.06;73.08;100370.14;;;;-52
2021/09/10 09:48:11;;;;;;;5.69;3.18;;;;;;;21.07;73.18;100368.41;;;;-48
2021/09/10 09:51:12;;;;;;;4.32;3.17;;;;;;;21.09;73.13;100369.23;;;;-56
2021/09/10 09:54:11;;;;;;;4.30;3.20;;;;;;;21.09;73.11;100372.23;;;;-52
2021/09/10 09:57:11;;;;;;;5.11;3.27;;;;;;;21.11;73.12;100370.13;;;;-57
2021/09/10 10:00:11;;;;;;;4.88;3.07;;;;;;;21.12;73.16;100375.23;;;;-66
2021/09/10 10:03:11;;;;;;;4.61;3.10;;;;;;;21.14;73.10;100372.88;;;;-64
2021/09/10 10:06:12;;;;;;;4.93;3.27;;;;;;;21.15;73.13;100377.20;;;;-61
2021/09/10 10:09:11;;;;;;;3.66;3.17;;;;;;;21.16;73.10;100373.44;;;;-69
2021/09/10 10:12:11;;;;;;;6.53;3.03;;;;;;;21.18;73.15;100373.27;;;;-59
2021/09/10 10:15:11;;;;;;;7.74;3.39;;;;;;;21.20;73.16;100379.47;;;;-51
2021/09/10 10:18:11;;;;;;;6.98;2.90;;;;;;;21.21;73.04;100378.34;;;;-55
2021/09/10 10:21:11;;;;;;;3.94;2.91;;;;;;;21.21;73.04;100380.86;;;;-63
2021/09/10 10:24:11;;;;;;;5.71;2.85;;;;;;;21.23;73.01;100373.94;;;;-64
2021/09/10 10:27:11;;;;;;;4.57;2.97;;;;;;;21.24;73.03;100371.63;;;;-66
2021/09/10 10:30:11;;;;;;;5.23;3.23;;;;;;;21.25;72.90;100370.34;;;;-63
2021/09/10 10:33:11;;;;;;;7.13;3.03;;;;;;;21.26;72.91;100373.59;;;;-49
2021/09/10 10:36:11;;;;;;;8.84;3.20;;;;;;;21.27;72.95;100365.91;;;;-48
2021/09/10 10:39:12;;;;;;;4.59;2.94;;;;;;;21.29;72.95;100373.67;;;;-53
2021/09/10 10:42:11;;;;;;;4.01;2.94;;;;;;;21.30;72.83;100370.89;;;;-63
2021/09/10 10:45:11;;;;;;;5.46;3.01;;;;;;;21.31;72.87;100369.67;;;;-55
2021/09/10 10:48:11;;;;;;;5.71;3.10;;;;;;;21.32;72.88;100369.10;;;;-57
2021/09/10 10:51:11;;;;;;;6.13;2.97;;;;;;;21.31;72.83;100364.46;;;;-56
2021/09/10 10:55:11;;;;;;;4.16;2.73;;;;;;;21.30;72.75;100362.56;;;;-57
2021/09/10 10:58:11;;;;;;;3.46;3.04;;;;;;;21.29;72.75;100357.95;;;;-52
2021/09/10 11:01:11;;;;;;;6.33;3.09;;;;;;;21.29;72.71;100359.23;;;;-51
2021/09/10 11:04:11;;;;;;;4.49;3.11;;;;;;;21.29;72.77;100357.27;;;;-53
2021/09/10 11:07:11;;;;;;;3.19;2.85;;;;;;;21.28;72.64;100356.64;;;;-56
2021/09/10 11:10:11;;;;;;;3.40;2.72;;;;;;;21.27;72.66;100352.79;;;;-56
2021/09/10 11:13:11;;;;;;;4.82;3.12;;;;;;;21.26;72.64;100352.80;;;;-57
2021/09/10 11:16:11;;;;;;;3.52;2.90;;;;;;;21.26;72.68;100351.17;;;;-54
2021/09/10 11:19:11;;;;;;;5.23;2.97;;;;;;;21.26;72.60;100348.66;;;;-53
2021/09/10 11:22:11;;;;;;;4.21;3.03;;;;;;;21.25;72.58;100353.47;;;;-63
2021/09/10 11:25:11;;;;;;;4.25;2.91;;;;;;;21.25;72.61;100352.91;;;;-63
2021/09/10 11:28:11;;;;;;;3.25;2.82;;;;;;;21.25;72.57;100347.11;;;;-55
2021/09/10 11:31:11;;;;;;;4.40;2.89;;;;;;;21.25;72.56;100350.59;;;;-57
2021/09/10 11:34:11;;;;;;;4.00;3.11;;;;;;;21.24;72.55;100346.70;;;;-52
2021/09/10 11:37:11;;;;;;;3.38;3.08;;;;;;;21.24;72.51;100350.84;;;;-56
2021/09/10 11:40:11;;;;;;;3.73;2.99;;;;;;;21.25;72.45;100349.13;;;;-56
2021/09/10 11:43:11;;;;;;;3.63;2.93;;;;;;;21.24;72.49;100348.73;;;;-52
2021/09/10 11:46:11;;;;;;;3.34;3.03;;;;;;;21.23;72.46;100347.44;;;;-63
2021/09/10 11:49:12;;;;;;;3.11;2.63;;;;;;;21.24;72.46;100349.06;;;;-61
2021/09/10 11:52:11;;;;;;;3.37;2.78;;;;;;;21.23;72.45;100347.93;;;;-63
2021/09/10 11:55:11;;;;;;;4.20;2.97;;;;;;;21.22;72.46;100345.14;;;;-61
2021/09/10 11:58:11;;;;;;;3.29;2.82;;;;;;;21.23;72.43;100343.83;;;;-61
2021/09/10 12:01:11;;;;;;;3.10;2.80;;;;;;;21.22;72.47;100338.79;;;;-57
2021/09/10 12:04:11;;;;;;;2.81;2.59;;;;;;;21.22;72.46;100343.28;;;;-53
2021/09/10 12:07:11;;;;;;;2.95;2.68;;;;;;;21.24;72.45;100342.87;;;;-54
2021/09/10 12:10:11;;;;;;;4.28;3.05;;;;;;;21.25;72.52;100340.41;;;;-61
2021/09/10 12:13:11;;;;;;;3.20;2.90;;;;;;;21.26;72.47;100340.18;;;;-55
2021/09/10 12:16:11;;;;;;;3.35;2.99;;;;;;;21.27;72.57;100339.09;;;;-52
2021/09/10 12:19:11;;;;;;;6.15;3.09;;;;;;;21.29;72.72;100340.98;;;;-47
2021/09/10 12:22:11;;;;;;;5.99;3.09;;;;;;;21.30;72.60;100337.95;;;;-51
2021/09/10 12:25:11;;;;;;;3.69;3.06;;;;;;;21.31;72.68;100333.79;;;;-51
2021/09/10 12:28:12;;;;;;;4.08;2.86;;;;;;;21.33;72.67;100337.05;;;;-52
2021/09/10 12:31:11;;;;;;;4.79;3.09;;;;;;;21.34;72.70;100329.47;;;;-52
2021/09/10 12:34:11;;;;;;;4.61;3.00;;;;;;;21.35;72.70;100329.21;;;;-52
2021/09/10 12:37:11;;;;;;;4.11;2.83;;;;;;;21.36;72.69;100330.77;;;;-57
2021/09/10 12:40:11;;;;;;;3.81;2.90;;;;;;;21.37;72.71;100328.47;;;;-65
2021/09/10 12:43:11;;;;;;;5.22;3.09;;;;;;;21.37;72.68;100324.39;;;;-62
2021/09/10 12:46:11;;;;;;;5.69;3.13;;;;;;;21.38;72.69;100323.66;;;;-60
2021/09/10 12:49:11;;;;;;;4.82;2.96;;;;;;;21.39;72.62;100319.83;;;;-64
2021/09/10 12:52:11;;;;;;;4.41;2.88;;;;;;;21.39;72.65;100319.11;;;;-62
2021/09/10 12:55:11;;;;;;;5.47;2.93;;;;;;;21.40;72.67;100320.48;;;;-52
2021/09/10 12:58:12;;;;;;;5.11;2.79;;;;;;;21.41;72.61;100318.35;;;;-53
2021/09/10 13:01:11;;;;;;;7.54;3.16;;;;;;;21.42;72.81;100322.63;;;;-55
2021/09/10 13:04:11;;;;;;;7.71;2.87;;;;;;;21.42;72.84;100322.79;;;;-59
2021/09/10 13:07:11;;;;;;;3.48;2.94;;;;;;;21.43;72.81;100321.71;;;;-53
2021/09/10 13:10:11;;;;;;;5.51;2.96;;;;;;;21.43;72.78;100318.14;;;;-50
2021/09/10 13:13:11;;;;;;;5.21;3.12;;;;;;;21.44;72.78;100317.07;;;;-49
2021/09/10 13:16:11;;;;;;;3.71;2.95;;;;;;;21.45;72.74;100314.29;;;;-50
2021/09/10 13:19:11;;;;;;;4.15;2.83;;;;;;;21.45;72.64;100316.08;;;;-52
2021/09/10 13:22:11;;;;;;;4.56;3.05;;;;;;;21.46;72.78;100315.66;;;;-58
2021/09/10 13:25:11;;;;;;;3.39;3.06;;;;;;;21.46;72.63;100310.14;;;;-58
2021/09/10 13:28:11;;;;;;;6.11;2.94;;;;;;;21.47;72.71;100306.95;;;;-61
2021/09/10 13:31:11;;;;;;;6.24;3.15;;;;;;;21.47;72.67;100308.58;;;;-53
2021/09/10 13:34:11;;;;;;;4.67;2.90;;;;;;;21.48;72.67;100305.48;;;;-53
2021/09/10 13:37:12;;;;;;;4.43;2.97;;;;;;;21.49;72.65;100298.28;;;;-51
2021/09/10 13:40:13;;;;;;;3.29;2.99;;;;;;;21.50;72.65;100293.81;;;;-57
2021/09/10 13:43:11;;;;;;;4.55;3.03;;;;;;;21.51;72.79;100290.30;;;;-59
2021/09/10 13:46:11;;;;;;;3.92;2.71;;;;;;;21.51;72.73;100290.55;;;;-58
2021/09/10 13:49:11;;;;;;;4.42;2.67;;;;;;;21.51;72.70;100289.31;;;;-57
2021/09/10 13:52:11;;;;;;;5.07;2.97;;;;;;;21.52;72.75;100285.79;;;;-60
2021/09/10 13:55:11;;;;;;;3.31;2.85;;;;;;;21.52;72.75;100281.50;;;;-58
2021/09/10 13:58:11;;;;;;;3.43;2.83;;;;;;;21.53;72.58;100277.00;;;;-58
2021/09/10 14:01:11;;;;;;;4.31;2.72;;;;;;;21.53;72.77;100279.05;;;;-51
2021/09/10 14:04:11;;;;;;;4.57;2.77;;;;;;;21.53;72.70;100283.36;;;;-56
2021/09/10 14:07:11;;;;;;;6.99;2.89;;;;;;;21.54;72.61;100282.70;;;;-55
2021/09/10 14:10:11;;;;;;;4.96;2.83;;;;;;;21.55;72.75;100280.66;;;;-52
2021/09/10 14:13:16;;;;;;;6.03;3.17;;;;;;;21.56;72.63;100273.81;;;;-56
2021/09/10 14:16:11;;;;;;;6.51;3.15;;;;;;;21.57;72.63;100275.59;;;;-55
2021/09/10 14:19:11;;;;;;;5.97;2.90;;;;;;;21.56;72.63;100273.54;;;;-60
2021/09/10 14:22:11;;;;;;;2.87;2.66;;;;;;;21.57;72.60;100282.94;;;;-58
2021/09/10 14:25:11;;;;;;;4.75;2.75;;;;;;;21.58;72.57;100285.78;;;;-47
2021/09/10 14:28:11;;;;;;;4.11;2.83;;;;;;;21.58;72.58;100284.64;;;;-47
2021/09/10 14:31:11;;;;;;;6.85;2.83;;;;;;;21.60;72.54;100285.86;;;;-51
2021/09/10 14:34:11;;;;;;;5.47;2.83;;;;;;;21.60;72.63;100279.97;;;;-51
2021/09/10 14:37:11;;;;;;;4.10;2.67;;;;;;;21.61;72.62;100282.73;;;;-59
2021/09/10 14:40:11;;;;;;;3.96;2.64;;;;;;;21.59;72.55;100282.83;;;;-59
2021/09/10 14:43:11;;;;;;;4.83;2.79;;;;;;;21.58;72.54;100280.98;;;;-59
2021/09/10 14:46:11;;;;;;;5.53;2.89;;;;;;;21.57;72.47;100280.97;;;;-59
2021/09/10 14:49:11;;;;;;;5.82;2.67;;;;;;;21.56;72.42;100278.13;;;;-59
2021/09/10 14:52:11;;;;;;;3.58;2.88;;;;;;;21.54;72.45;100281.16;;;;-49
2021/09/10 14:55:12;;;;;;;9.77;2.98;;;;;;;21.56;72.44;100282.76;;;;-51
2021/09/10 14:58:11;;;;;;;6.64;3.74;;;;;;;21.54;72.53;100282.95;;;;-48
2021/09/10 15:01:13;;;;;;;7.28;3.98;;;;;;;21.55;72.53;100278.70;;;;-47
2021/09/10 15:04:26;;;;;;;5.00;3.00;;;;;;;21.56;72.46;100277.13;;;;-48
2021/09/10 15:07:11;;;;;;;5.94;3.01;;;;;;;21.58;72.48;100279.98;;;;-48
2021/09/10 15:10:12;;;;;;;7.60;2.82;;;;;;;21.57;72.46;100280.55;;;;-61
2021/09/10 15:13:11;;;;;;;3.23;2.82;;;;;;;21.58;72.44;100283.48;;;;-59
2021/09/10 15:16:11;;;;;;;4.57;2.70;;;;;;;21.59;72.49;100283.91;;;;-62
2021/09/10 15:19:11;;;;;;;5.47;3.19;;;;;;;21.60;72.41;100280.78;;;;-61
2021/09/10 15:22:11;;;;;;;4.19;2.88;;;;;;;21.59;72.52;100279.73;;;;-67
2021/09/10 15:25:11;;;;;;;3.64;3.01;;;;;;;21.61;72.44;100283.33;;;;-62
2021/09/10 15:28:11;;;;;;;4.97;2.97;;;;;;;21.61;72.40;100284.14;;;;-63
2021/09/10 15:31:11;;;;;;;6.57;3.11;;;;;;;21.63;72.43;100291.47;;;;-61
2021/09/10 15:34:11;;;;;;;6.13;2.87;;;;;;;21.63;72.43;100294.56;;;;-55
2021/09/10 15:37:12;;;;;;;4.70;3.34;;;;;;;21.64;72.18;100301.15;;;;-58
2021/09/10 15:40:11;;;;;;;4.62;2.82;;;;;;;21.65;72.40;100305.00;;;;-62
2021/09/10 15:43:11;;;;;;;3.83;2.97;;;;;;;21.66;72.42;100303.34;;;;-52
2021/09/10 15:46:11;;;;;;;5.73;2.99;;;;;;;21.65;72.48;100302.95;;;;-54
2021/09/10 15:49:11;;;;;;;5.13;3.18;;;;;;;21.65;72.53;100307.03;;;;-57
2021/09/10 15:52:11;;;;;;;3.92;2.93;;;;;;;21.65;72.53;100305.06;;;;-52
2021/09/10 15:55:13;;;;;;;5.30;2.75;;;;;;;21.66;72.47;100301.47;;;;-53
2021/09/10 15:58:11;;;;;;;3.82;3.02;;;;;;;21.66;72.42;100299.67;;;;-55
2021/09/10 16:01:11;;;;;;;5.35;3.19;;;;;;;21.67;72.39;100299.03;;;;-52
2021/09/10 16:04:11;;;;;;;4.70;3.10;;;;;;;21.67;72.38;100300.33;;;;-58
2021/09/10 16:07:11;;;;;;;4.87;2.93;;;;;;;21.67;72.39;100300.81;;;;-59
2021/09/10 16:10:11;;;;;;;5.74;3.28;;;;;;;21.68;72.42;100300.23;;;;-59
2021/09/10 16:13:11;;;;;;;3.30;3.00;;;;;;;21.67;72.50;100300.33;;;;-60
2021/09/10 16:16:12;;;;;;;6.05;3.16;;;;;;;21.68;72.44;100300.73;;;;-60
2021/09/10 16:19:11;;;;;;;5.04;2.97;;;;;;;21.67;72.44;100300.98;;;;-58
2021/09/10 16:22:11;;;;;;;3.37;2.95;;;;;;;21.67;72.46;100304.23;;;;-57
2021/09/10 16:25:11;;;;;;;3.37;2.78;;;;;;;21.68;72.50;100303.65;;;;-57
2021/09/10 16:28:11;;;;;;;3.81;2.89;;;;;;;21.68;72.46;100303.81;;;;-59
2021/09/10 16:31:11;;;;;;;4.85;2.94;;;;;;;21.68;72.46;100305.86;;;;-49
2021/09/10 16:34:11;;;;;;;4.17;3.01;;;;;;;21.67;72.44;100303.67;;;;-52
2021/09/10 16:37:11;;;;;;;3.99;2.67;;;;;;;21.66;72.46;100306.19;;;;-51
2021/09/10 16:40:11;;;;;;;3.48;2.83;;;;;;;21.66;72.46;100311.33;;;;-51
2021/09/10 16:43:11;;;;;;;3.33;2.71;;;;;;;21.66;72.46;100313.13;;;;-51